Huff, Kentucky
Current Conditions -  °F | °C
As of 3:53 AM on Tuesday 21 Oct 2014 (Local Time) from KBWG Reporting Station
Moderate Fog Moderate Fog  
Wind Chill: 46°   Ceiling: Unl
Heat Index: 46°   Visibility: 0.25mi
Dew Point: 44°   Wind: 0mph
Humidity: 93%   Direction: NA
Pressure: 30"   Gusts: NA
Location:  37.2379°N, 86.3446°W
Report Text: KBWG 210853Z AUTO 00000KT 1/4SM FG CLR 08/07 A3000 RMK AO2 SLP156 T00780067 50000
Loading
Personal Weather Stations






























Interactive Weather Map New forecast layout! Learn more

10-Day Weather Forecast

Advertisements
Track Severe Weather on mobile